Time;durP1;ratioP1;P1;durP2;ratioP2;P2;SDS_P1;SDS_P2;PMS_P1;PMS_P2;Temp;Humidity;BMP_temperature;BMP_pressure;BME280_temperature;BME280_humidity;BME280_pressure;Samples;Min_cycle;Max_cycle;Signal;HPM_P1;HPM_P2
2024/02/02 00:00:23;;;;;;;30.98;12.02;;;7.30;99.90;;;;;;5031488;28;20108;-79
2024/02/02 00:02:48;;;;;;;42.42;12.40;;;7.20;99.90;;;;;;5030561;28;20026;-78
2024/02/02 00:05:14;;;;;;;47.90;12.15;;;7.20;99.90;;;;;;5029005;28;20025;-79
2024/02/02 00:07:40;;;;;;;56.63;12.10;;;7.20;99.90;;;;;;5029660;28;20025;-79
2024/02/02 00:10:06;;;;;;;41.95;11.10;;;7.20;99.90;;;;;;5030001;28;20107;-78
2024/02/02 00:12:32;;;;;;;35.05;10.70;;;7.20;99.90;;;;;;5031394;28;20098;-79
2024/02/02 00:14:57;;;;;;;35.28;10.18;;;7.20;99.90;;;;;;5031640;28;20044;-79
2024/02/02 00:17:23;;;;;;;37.22;10.40;;;7.10;99.90;;;;;;5031413;28;20029;-79
2024/02/02 00:19:49;;;;;;;34.15;9.70;;;7.10;99.90;;;;;;5029462;28;20419;-79
2024/02/02 00:22:14;;;;;;;46.78;9.70;;;7.20;99.90;;;;;;5034233;28;20049;-79
2024/02/02 00:24:40;;;;;;;33.63;9.63;;;7.20;99.90;;;;;;5032126;28;20025;-79
2024/02/02 00:27:06;;;;;;;32.30;8.57;;;7.20;99.90;;;;;;5023785;28;20032;-78
2024/02/02 00:29:31;;;;;;;31.45;9.43;;;7.10;99.90;;;;;;5030585;28;20103;-77
2024/02/02 00:31:57;;;;;;;31.23;8.32;;;7.20;99.90;;;;;;5033117;28;20030;-77
2024/02/02 00:34:23;;;;;;;33.58;8.13;;;7.10;99.90;;;;;;5030226;28;20847;-78
2024/02/02 00:36:49;;;;;;;39.63;8.00;;;7.20;99.90;;;;;;5030645;28;20144;-79
2024/02/02 00:39:14;;;;;;;32.83;7.88;;;7.20;99.90;;;;;;5029201;28;20514;-77
2024/02/02 00:41:40;;;;;;;36.72;7.60;;;7.20;99.90;;;;;;5029297;28;20490;-78
2024/02/02 00:44:07;;;;;;;29.08;7.05;;;7.20;99.90;;;;;;5030967;28;20103;-75
2024/02/02 00:46:33;;;;;;;33.80;8.40;;;7.20;99.90;;;;;;5033297;28;20033;-75
2024/02/02 00:48:59;;;;;;;38.58;7.65;;;7.20;99.90;;;;;;5030979;28;20038;-76
2024/02/02 00:51:24;;;;;;;28.95;7.25;;;7.20;99.90;;;;;;5029701;28;20064;-79
2024/02/02 00:53:50;;;;;;;33.83;7.80;;;7.20;99.90;;;;;;5033178;28;20029;-79
2024/02/02 00:56:16;;;;;;;33.78;7.70;;;7.20;99.90;;;;;;5030912;28;20029;-79
2024/02/02 00:58:42;;;;;;;32.38;7.95;;;7.20;99.90;;;;;;5031298;28;20025;-79
2024/02/02 01:01:07;;;;;;;34.63;7.53;;;7.30;99.90;;;;;;5029953;28;20041;-78
2024/02/02 01:03:37;;;;;;;34.83;8.38;;;7.30;99.90;;;;;;5029482;28;20025;-76
2024/02/02 01:06:04;;;;;;;35.40;7.75;;;7.30;99.90;;;;;;5026800;28;20592;-79
2024/02/02 01:08:29;;;;;;;37.90;8.25;;;7.40;99.90;;;;;;5028418;28;20041;-77
2024/02/02 01:10:55;;;;;;;37.30;8.77;;;7.30;99.90;;;;;;5028394;28;20035;-77
2024/02/02 01:13:21;;;;;;;32.28;7.63;;;7.30;99.90;;;;;;5027885;28;20029;-78
2024/02/02 01:15:47;;;;;;;29.83;7.82;;;7.30;99.90;;;;;;5030826;28;20493;-79
2024/02/02 01:18:14;;;;;;;35.75;8.43;;;7.30;99.90;;;;;;5026237;28;20029;-79
2024/02/02 01:20:42;;;;;;;39.83;8.30;;;7.30;99.90;;;;;;5029972;28;20417;-78
2024/02/02 01:23:08;;;;;;;26.38;7.85;;;7.30;99.90;;;;;;5031560;28;20346;-79
2024/02/02 01:25:33;;;;;;;37.13;8.38;;;7.40;99.90;;;;;;5028270;28;20487;-79
2024/02/02 01:28:00;;;;;;;34.88;7.90;;;7.40;99.90;;;;;;5023344;28;20030;-79
2024/02/02 01:30:29;;;;;;;24.95;7.20;;;7.40;99.90;;;;;;5017461;28;20034;-79
2024/02/02 01:32:58;;;;;;;33.65;7.75;;;7.50;99.90;;;;;;5022608;28;20033;-78
2024/02/02 01:35:24;;;;;;;28.95;6.63;;;7.50;99.90;;;;;;5021567;28;20041;-79
2024/02/02 01:37:50;;;;;;;37.30;7.32;;;7.40;99.90;;;;;;5018870;28;20026;-79
2024/02/02 01:40:16;;;;;;;31.40;6.60;;;7.30;99.90;;;;;;5020518;28;20036;-79
2024/02/02 01:42:42;;;;;;;32.40;9.32;;;7.40;99.90;;;;;;5025420;28;20028;-77
2024/02/02 01:45:08;;;;;;;33.38;7.45;;;7.40;99.90;;;;;;5022081;28;20033;-79
2024/02/02 01:47:35;;;;;;;28.55;7.57;;;7.50;99.90;;;;;;5023617;28;20056;-79
2024/02/02 01:50:02;;;;;;;25.38;7.00;;;7.50;99.90;;;;;;5025919;28;20025;-77
2024/02/02 01:52:29;;;;;;;35.47;7.70;;;7.50;99.90;;;;;;5017794;28;20024;-79
2024/02/02 01:54:55;;;;;;;29.10;6.60;;;7.50;99.90;;;;;;5022613;28;20025;-78
2024/02/02 01:57:21;;;;;;;32.97;7.28;;;7.50;99.90;;;;;;5030667;28;20026;-78
2024/02/02 01:59:48;;;;;;;34.75;7.35;;;7.50;99.90;;;;;;5022751;28;20128;-78
2024/02/02 02:02:14;;;;;;;34.05;7.10;;;7.40;99.90;;;;;;5027115;28;20101;-78
2024/02/02 02:04:40;;;;;;;27.67;6.13;;;7.50;99.90;;;;;;5025174;28;20120;-78
2024/02/02 02:07:06;;;;;;;26.27;6.88;;;7.50;99.90;;;;;;5032194;28;20093;-79
2024/02/02 02:09:33;;;;;;;27.77;7.00;;;7.50;99.90;;;;;;5017197;28;20142;-77
2024/02/02 02:12:00;;;;;;;34.83;7.10;;;7.50;99.90;;;;;;5018857;28;20105;-76
2024/02/02 02:14:26;;;;;;;35.15;6.68;;;7.50;99.90;;;;;;5018707;28;20052;-78
2024/02/02 02:16:51;;;;;;;33.45;7.25;;;7.50;99.90;;;;;;5023153;28;20127;-79
2024/02/02 02:19:17;;;;;;;31.40;7.22;;;7.50;99.90;;;;;;5018047;28;20034;-79
2024/02/02 02:21:43;;;;;;;32.10;7.05;;;7.50;99.90;;;;;;5027418;28;20389;-79
2024/02/02 02:24:09;;;;;;;38.60;6.72;;;7.50;99.90;;;;;;5026453;28;20375;-79
2024/02/02 02:26:35;;;;;;;34.60;6.80;;;7.50;99.90;;;;;;5020643;28;20220;-78
2024/02/02 02:29:01;;;;;;;33.97;7.35;;;7.40;99.90;;;;;;5016846;28;20030;-76
2024/02/02 02:31:27;;;;;;;27.98;7.63;;;7.50;99.90;;;;;;5020668;28;20056;-79
2024/02/02 02:33:53;;;;;;;34.53;7.50;;;7.50;99.90;;;;;;5024029;28;20037;-75
2024/02/02 02:36:20;;;;;;;40.65;7.43;;;7.50;99.90;;;;;;5021954;28;20032;-79
2024/02/02 02:38:47;;;;;;;29.95;7.13;;;7.40;99.90;;;;;;5026245;28;20040;-79
2024/02/02 02:41:13;;;;;;;35.47;7.43;;;7.50;99.90;;;;;;5020640;28;20022;-79
2024/02/02 02:43:39;;;;;;;24.40;6.13;;;7.50;99.90;;;;;;5032552;28;20029;-75
2024/02/02 02:46:06;;;;;;;32.38;6.07;;;7.50;99.90;;;;;;5018510;28;20026;-79
2024/02/02 02:48:32;;;;;;;26.00;5.60;;;7.40;99.90;;;;;;5020145;28;20064;-78
2024/02/02 02:50:57;;;;;;;26.77;7.38;;;7.50;99.90;;;;;;5024151;28;20486;-79
2024/02/02 02:53:23;;;;;;;24.40;6.22;;;7.40;99.90;;;;;;5022114;28;20067;-79
2024/02/02 02:55:49;;;;;;;30.17;6.40;;;7.40;99.90;;;;;;5018639;28;20030;-78
2024/02/02 02:58:15;;;;;;;32.67;7.53;;;7.50;99.90;;;;;;5027437;28;20022;-79
2024/02/02 03:00:41;;;;;;;31.42;6.15;;;7.40;99.90;;;;;;5022534;28;20037;-79
2024/02/02 03:03:07;;;;;;;26.85;6.57;;;7.40;99.90;;;;;;5027987;28;20021;-79
2024/02/02 03:05:32;;;;;;;34.70;6.97;;;7.40;99.90;;;;;;5020969;28;20034;-78
2024/02/02 03:07:58;;;;;;;27.88;6.28;;;7.40;99.90;;;;;;5023399;28;20108;-78
2024/02/02 03:10:25;;;;;;;26.60;5.72;;;7.40;99.90;;;;;;5026293;28;20038;-78
2024/02/02 03:12:54;;;;;;;25.85;6.03;;;7.50;99.90;;;;;;5027493;28;20026;-78
2024/02/02 03:15:20;;;;;;;25.00;5.95;;;7.40;99.90;;;;;;5022692;28;20033;-79
2024/02/02 03:17:49;;;;;;;24.65;5.80;;;7.40;99.90;;;;;;5032147;28;20032;-79
2024/02/02 03:20:15;;;;;;;26.30;5.85;;;7.40;99.90;;;;;;5030935;28;20673;-79
2024/02/02 03:22:41;;;;;;;34.88;7.00;;;7.40;99.90;;;;;;5026399;28;20121;-79
2024/02/02 03:25:08;;;;;;;30.92;6.93;;;7.40;99.90;;;;;;5023508;28;20022;-79
2024/02/02 03:27:34;;;;;;;27.13;6.75;;;7.40;99.90;;;;;;5032412;28;20069;-78
2024/02/02 03:30:00;;;;;;;27.90;6.82;;;7.40;99.90;;;;;;5031552;28;20030;-79
2024/02/02 03:32:26;;;;;;;24.63;6.60;;;7.40;99.90;;;;;;5029332;28;20095;-77
2024/02/02 03:34:52;;;;;;;39.45;7.40;;;7.40;99.90;;;;;;5024122;28;20102;-79
2024/02/02 03:37:20;;;;;;;25.65;5.70;;;7.40;99.90;;;;;;5028842;28;20025;-79
2024/02/02 03:39:46;;;;;;;33.47;6.15;;;7.50;99.90;;;;;;5029532;28;20059;-79
2024/02/02 03:42:12;;;;;;;25.23;6.38;;;7.40;99.90;;;;;;5023766;28;20414;-79
2024/02/02 03:44:38;;;;;;;24.63;6.82;;;7.40;99.90;;;;;;5026130;28;20051;-79
2024/02/02 03:47:04;;;;;;;30.30;6.78;;;7.40;99.90;;;;;;5024665;28;20045;-79
2024/02/02 03:49:32;;;;;;;28.83;6.47;;;7.40;99.90;;;;;;5025554;28;20490;-79
2024/02/02 03:52:00;;;;;;;27.65;5.63;;;7.30;99.90;;;;;;5030517;28;20030;-79
2024/02/02 03:54:26;;;;;;;34.53;7.00;;;7.30;99.90;;;;;;5026402;28;20481;-75
2024/02/02 03:56:52;;;;;;;27.52;6.32;;;7.30;99.90;;;;;;5021297;28;20014;-77
2024/02/02 03:59:18;;;;;;;27.92;7.05;;;7.30;99.90;;;;;;5023421;28;20164;-77
2024/02/02 04:01:43;;;;;;;26.35;5.63;;;7.30;99.90;;;;;;5020667;28;20104;-79
2024/02/02 04:04:09;;;;;;;37.78;6.70;;;7.20;99.90;;;;;;5023952;28;20398;-79
2024/02/02 04:06:35;;;;;;;26.23;6.47;;;7.20;99.90;;;;;;5026040;28;20029;-78
2024/02/02 04:09:01;;;;;;;29.48;6.07;;;7.10;99.90;;;;;;5028790;28;20042;-78
2024/02/02 04:11:28;;;;;;;30.23;6.07;;;7.10;99.90;;;;;;5025946;28;20021;-78
2024/02/02 04:13:53;;;;;;;28.50;6.22;;;7.20;99.90;;;;;;5024834;28;20025;-79
2024/02/02 04:16:19;;;;;;;26.95;5.90;;;7.10;99.90;;;;;;5024765;28;20497;-79
2024/02/02 04:18:45;;;;;;;30.35;5.90;;;7.10;99.90;;;;;;5029551;28;20026;-79
2024/02/02 04:21:11;;;;;;;27.75;6.43;;;7.00;99.90;;;;;;5021314;28;20060;-77
2024/02/02 04:23:36;;;;;;;25.05;5.00;;;7.10;99.90;;;;;;5029101;28;20029;-78
2024/02/02 04:26:02;;;;;;;26.30;5.78;;;7.10;99.90;;;;;;5023982;28;20595;-78
2024/02/02 04:28:28;;;;;;;20.02;6.30;;;7.00;99.90;;;;;;5027391;28;20037;-78
2024/02/02 04:30:53;;;;;;;32.20;6.20;;;7.00;99.90;;;;;;5021665;28;20026;-78
2024/02/02 04:33:19;;;;;;;28.85;6.38;;;7.10;99.90;;;;;;5024461;28;20389;-78
2024/02/02 04:35:45;;;;;;;28.95;6.63;;;7.00;99.90;;;;;;5026738;28;20021;-77
2024/02/02 04:38:11;;;;;;;25.75;6.68;;;7.10;99.90;;;;;;5022994;28;20026;-77
2024/02/02 04:40:36;;;;;;;23.02;6.95;;;7.00;99.90;;;;;;5029703;28;20032;-78
2024/02/02 04:43:02;;;;;;;26.70;7.05;;;7.00;99.90;;;;;;5023688;28;20021;-78
2024/02/02 04:45:28;;;;;;;32.20;6.43;;;7.00;99.90;;;;;;5027097;28;20041;-77
2024/02/02 04:47:54;;;;;;;21.23;6.55;;;7.10;99.90;;;;;;5021965;28;20033;-77
2024/02/02 04:50:20;;;;;;;24.58;6.65;;;7.00;99.90;;;;;;5023300;28;20033;-78
2024/02/02 04:52:45;;;;;;;29.70;7.40;;;6.90;99.90;;;;;;5028567;28;20097;-78
2024/02/02 04:55:12;;;;;;;27.90;7.35;;;6.90;99.90;;;;;;5029520;28;20029;-78
2024/02/02 04:57:37;;;;;;;35.08;7.50;;;6.90;99.90;;;;;;5030483;28;20052;-78
2024/02/02 05:00:04;;;;;;;33.53;7.25;;;6.90;99.90;;;;;;5028047;28;20589;-77
2024/02/02 05:02:31;;;;;;;32.55;6.68;;;6.90;99.90;;;;;;5020074;28;20670;-79
2024/02/02 05:04:57;;;;;;;27.30;7.03;;;6.90;99.90;;;;;;5021809;28;20020;-78
2024/02/02 05:07:23;;;;;;;25.30;6.88;;;7.00;99.90;;;;;;5030540;28;20033;-78
2024/02/02 05:09:48;;;;;;;23.75;6.78;;;7.00;99.90;;;;;;5023069;28;20371;-78
2024/02/02 05:12:15;;;;;;;22.83;6.35;;;7.00;99.90;;;;;;5026135;28;20045;-78
2024/02/02 05:14:42;;;;;;;35.65;7.22;;;7.00;99.90;;;;;;5022648;28;20063;-78
2024/02/02 05:17:08;;;;;;;25.70;6.25;;;7.00;99.90;;;;;;5029383;28;20048;-78
2024/02/02 05:19:34;;;;;;;25.90;6.07;;;7.00;99.90;;;;;;5032015;28;20024;-78
2024/02/02 05:22:00;;;;;;;30.35;6.95;;;7.00;99.90;;;;;;5029693;28;20029;-78
2024/02/02 05:24:26;;;;;;;29.10;7.05;;;7.00;99.90;;;;;;5027587;28;20036;-76
2024/02/02 05:26:52;;;;;;;25.83;6.38;;;7.00;99.90;;;;;;5021387;28;20033;-79
2024/02/02 05:29:18;;;;;;;22.33;6.90;;;7.10;99.90;;;;;;5021452;28;20136;-78
2024/02/02 05:31:44;;;;;;;23.88;6.78;;;7.10;99.90;;;;;;5021545;28;20033;-76
2024/02/02 05:34:09;;;;;;;34.05;7.28;;;7.00;99.90;;;;;;5030545;28;20029;-79
2024/02/02 05:36:35;;;;;;;27.95;7.15;;;7.10;99.90;;;;;;5024687;28;20029;-77
2024/02/02 05:39:01;;;;;;;28.42;6.72;;;7.10;99.90;;;;;;5026850;28;20033;-79
2024/02/02 05:41:27;;;;;;;31.10;8.02;;;7.00;99.90;;;;;;5022338;28;20026;-78
2024/02/02 05:43:53;;;;;;;33.97;7.25;;;7.00;99.90;;;;;;5025408;28;20033;-76
2024/02/02 05:46:19;;;;;;;24.15;7.18;;;7.00;99.90;;;;;;5024877;28;20026;-78
2024/02/02 05:48:45;;;;;;;29.85;6.75;;;7.00;99.90;;;;;;5022290;28;20038;-78
2024/02/02 05:51:10;;;;;;;26.27;7.00;;;7.00;99.90;;;;;;5023052;28;20049;-76
2024/02/02 05:53:36;;;;;;;24.58;7.43;;;7.00;99.90;;;;;;5028829;28;20388;-79
2024/02/02 05:56:02;;;;;;;23.70;7.60;;;6.90;99.90;;;;;;5025358;28;20029;-78
2024/02/02 05:58:27;;;;;;;26.15;7.05;;;6.90;99.90;;;;;;5022755;28;20034;-79
2024/02/02 06:00:53;;;;;;;32.72;7.28;;;6.90;99.90;;;;;;5030203;28;20045;-78
2024/02/02 06:03:20;;;;;;;30.02;7.63;;;6.90;99.90;;;;;;5027331;28;20039;-77
2024/02/02 06:05:46;;;;;;;29.98;7.13;;;6.80;99.90;;;;;;5020379;28;20022;-75
2024/02/02 06:08:13;;;;;;;23.42;7.43;;;6.90;99.90;;;;;;5021234;28;20037;-79
2024/02/02 06:10:42;;;;;;;34.15;8.50;;;6.80;99.90;;;;;;5025830;28;20045;-77
2024/02/02 06:13:08;;;;;;;34.05;8.10;;;6.80;99.90;;;;;;5022289;28;20029;-78
2024/02/02 06:15:34;;;;;;;28.20;8.15;;;6.70;99.90;;;;;;5021252;28;20083;-77
2024/02/02 06:18:00;;;;;;;30.73;7.72;;;6.80;99.90;;;;;;5026289;28;20070;-75
2024/02/02 06:20:26;;;;;;;36.92;7.55;;;6.70;99.90;;;;;;5018854;28;20033;-78
2024/02/02 06:22:51;;;;;;;24.80;8.27;;;6.70;99.90;;;;;;5029248;28;20470;-76
2024/02/02 06:25:18;;;;;;;31.08;8.23;;;6.80;99.90;;;;;;5023107;28;20034;-78
2024/02/02 06:27:44;;;;;;;27.38;7.57;;;6.70;99.90;;;;;;5023556;28;20620;-78
2024/02/02 06:30:10;;;;;;;29.08;8.23;;;6.70;99.90;;;;;;5025305;28;20026;-78
2024/02/02 06:32:38;;;;;;;27.08;7.18;;;6.60;99.90;;;;;;5022642;28;20028;-78
2024/02/02 06:35:05;;;;;;;24.13;7.57;;;6.60;99.90;;;;;;5027205;28;20351;-76
2024/02/02 06:37:31;;;;;;;36.15;8.90;;;6.60;99.90;;;;;;5022207;28;20021;-78
2024/02/02 06:39:57;;;;;;;31.88;7.78;;;6.60;99.90;;;;;;5020914;28;20139;-78
2024/02/02 06:42:26;;;;;;;38.85;9.05;;;6.60;99.90;;;;;;5021463;28;20108;-78
2024/02/02 06:44:54;;;;;;;33.90;7.05;;;6.50;99.90;;;;;;5023425;28;20021;-77
2024/02/02 06:47:21;;;;;;;25.42;7.05;;;6.60;99.90;;;;;;5020978;28;20022;-77
2024/02/02 06:50:08;;;;;;;33.75;7.70;;;6.60;99.90;;;;;;5029210;28;20037;-76
2024/02/02 06:52:35;;;;;;;26.77;7.18;;;6.50;99.90;;;;;;5032139;28;20038;-78
2024/02/02 06:55:02;;;;;;;34.15;7.95;;;6.50;99.90;;;;;;5020817;28;20064;-79
2024/02/02 06:57:31;;;;;;;30.00;8.73;;;6.40;99.90;;;;;;5027252;28;20029;-77
2024/02/02 06:59:58;;;;;;;29.67;7.85;;;6.30;99.90;;;;;;5017877;28;20490;-76
2024/02/02 07:02:32;;;;;;;28.70;7.32;;;6.40;99.90;;;;;;5027661;28;20486;-78
2024/02/02 07:04:58;;;;;;;23.75;6.65;;;6.40;99.90;;;;;;5014488;28;20530;-79
2024/02/02 07:07:25;;;;;;;29.40;8.30;;;6.40;99.90;;;;;;5013742;28;20122;-79
2024/02/02 07:09:54;;;;;;;27.55;6.82;;;6.40;99.90;;;;;;5014610;28;20026;-78
2024/02/02 07:12:49;;;;;;;30.00;6.70;;;6.40;99.90;;;;;;5034145;28;20043;-79
2024/02/02 07:15:19;;;;;;;34.05;7.95;;;6.30;99.90;;;;;;5035679;28;20466;-75
2024/02/02 07:17:45;;;;;;;27.10;7.32;;;6.40;99.90;;;;;;5033219;28;20382;-78
2024/02/02 07:20:24;;;;;;;21.95;6.85;;;6.40;99.90;;;;;;5025069;28;20022;-80
2024/02/02 07:22:58;;;;;;;24.17;6.80;;;6.40;99.90;;;;;;5014453;28;20092;-80
2024/02/02 07:25:25;;;;;;;27.65;7.25;;;6.40;99.90;;;;;;5031700;28;20075;-75
2024/02/02 07:27:56;;;;;;;35.03;7.90;;;6.30;99.90;;;;;;5017637;28;20112;-77
2024/02/02 07:30:31;;;;;;;23.40;7.38;;;6.40;99.90;;;;;;5024155;28;20044;-76
2024/02/02 07:33:01;;;;;;;30.00;8.02;;;6.40;99.90;;;;;;5018929;28;20036;-79
2024/02/02 07:35:35;;;;;;;28.13;7.88;;;6.40;99.90;;;;;;5022943;28;20025;-75
2024/02/02 07:38:05;;;;;;;23.33;6.07;;;6.40;99.90;;;;;;5032691;28;20029;-79
2024/02/02 07:40:30;;;;;;;32.22;7.90;;;6.40;99.90;;;;;;5035410;28;20028;-77
2024/02/02 07:43:00;;;;;;;27.42;7.75;;;6.40;99.90;;;;;;5032931;28;20025;-78
2024/02/02 07:45:26;;;;;;;22.92;6.35;;;6.40;99.90;;;;;;5030235;28;20033;-77
2024/02/02 07:47:52;;;;;;;25.67;7.40;;;6.50;99.90;;;;;;5034239;28;20026;-76
2024/02/02 07:50:17;;;;;;;22.42;6.15;;;6.40;99.90;;;;;;5034207;28;20036;-80
2024/02/02 07:52:43;;;;;;;29.60;6.57;;;6.50;99.90;;;;;;5033393;28;20032;-76
2024/02/02 07:55:09;;;;;;;29.73;6.72;;;6.50;99.90;;;;;;5034238;28;20383;-75
2024/02/02 07:57:35;;;;;;;28.02;7.15;;;6.50;99.90;;;;;;5025124;28;20101;-77
2024/02/02 08:00:00;;;;;;;31.88;7.25;;;6.60;99.90;;;;;;5021675;28;20363;-75
2024/02/02 08:02:26;;;;;;;22.55;5.65;;;6.60;99.90;;;;;;5014218;28;20054;-75
2024/02/02 08:04:55;;;;;;;23.60;6.18;;;6.60;99.90;;;;;;5029962;28;20026;-76
2024/02/02 08:07:20;;;;;;;29.92;5.93;;;6.60;99.90;;;;;;5017529;28;20053;-76
2024/02/02 08:09:46;;;;;;;25.10;5.88;;;6.60;99.90;;;;;;5025491;28;20554;-77
2024/02/02 08:12:12;;;;;;;28.20;6.40;;;6.60;99.90;;;;;;5023436;28;20029;-78
2024/02/02 08:14:39;;;;;;;23.48;6.30;;;6.60;99.90;;;;;;5023968;28;20343;-79
2024/02/02 08:17:09;;;;;;;22.17;5.53;;;6.50;99.90;;;;;;5023242;28;20488;-76
2024/02/02 08:19:36;;;;;;;21.90;5.97;;;6.60;99.90;;;;;;5023827;28;20029;-76
2024/02/02 08:22:02;;;;;;;23.35;6.70;;;6.50;99.90;;;;;;5021791;28;20017;-77
2024/02/02 08:24:27;;;;;;;28.92;6.28;;;6.60;99.90;;;;;;5024911;28;20017;-75
2024/02/02 08:26:53;;;;;;;22.73;5.90;;;6.60;99.90;;;;;;5022144;28;20030;-78
2024/02/02 08:29:19;;;;;;;27.52;7.03;;;6.60;99.90;;;;;;5023218;28;20088;-76
2024/02/02 08:31:45;;;;;;;26.83;5.88;;;6.70;99.90;;;;;;5024294;28;20105;-78
2024/02/02 08:34:11;;;;;;;23.13;5.13;;;6.60;99.90;;;;;;5018968;28;20035;-80
2024/02/02 08:36:38;;;;;;;32.63;6.18;;;6.70;99.90;;;;;;5009772;28;20405;-77
2024/02/02 08:39:08;;;;;;;20.20;6.80;;;6.70;99.90;;;;;;5025032;28;20022;-78
2024/02/02 08:41:38;;;;;;;34.90;7.03;;;6.70;99.90;;;;;;5032482;28;20026;-77
2024/02/02 08:44:11;;;;;;;32.50;7.15;;;6.70;99.90;;;;;;5026760;28;20021;-78
2024/02/02 08:46:37;;;;;;;23.45;5.72;;;6.80;99.90;;;;;;5028074;28;20394;-76
2024/02/02 08:49:03;;;;;;;29.17;7.15;;;6.90;99.90;;;;;;5031392;28;20029;-77
2024/02/02 08:51:47;;;;;;;31.15;6.40;;;7.00;99.90;;;;;;5032715;28;20025;-77
2024/02/02 08:54:19;;;;;;;26.90;6.80;;;7.00;99.90;;;;;;5028424;28;20022;-76
2024/02/02 08:57:25;;;;;;;22.83;6.57;;;6.90;99.90;;;;;;5029406;28;20025;-77
2024/02/02 08:59:54;;;;;;;23.58;6.30;;;7.00;99.90;;;;;;5027828;28;20502;-78
2024/02/02 09:02:54;;;;;;;28.35;6.60;;;7.00;99.90;;;;;;5029835;28;20037;-76
2024/02/02 09:05:25;;;;;;;24.48;6.93;;;7.00;99.90;;;;;;5024417;28;20037;-76
2024/02/02 09:08:08;;;;;;;23.45;6.55;;;7.00;99.90;;;;;;5028934;28;20037;-76
2024/02/02 09:10:35;;;;;;;26.23;6.95;;;7.20;99.90;;;;;;5029454;28;20167;-77
2024/02/02 09:13:02;;;;;;;26.52;7.68;;;7.30;99.90;;;;;;5028025;28;20386;-77
2024/02/02 09:15:31;;;;;;;29.17;8.25;;;7.30;99.90;;;;;;5030235;28;20573;-78
2024/02/02 09:17:57;;;;;;;26.40;7.38;;;7.30;99.90;;;;;;5030335;28;20025;-78
2024/02/02 09:20:43;;;;;;;32.85;8.40;;;7.40;99.90;;;;;;5028774;28;20021;-76
2024/02/02 09:23:09;;;;;;;28.73;7.40;;;7.40;99.90;;;;;;5031576;28;20866;-76
2024/02/02 09:25:42;;;;;;;27.70;7.85;;;7.50;99.90;;;;;;5030610;28;20104;-78
2024/02/02 09:28:32;;;;;;;;;;;7.60;99.90;;;;;;5031293;28;20069;-78
2024/02/02 09:31:02;;;;;;;27.48;8.02;;;7.60;99.90;;;;;;5029170;28;20271;-78
2024/02/02 09:33:31;;;;;;;36.15;9.48;;;7.70;99.90;;;;;;5026902;28;20151;-77
2024/02/02 09:36:02;;;;;;;30.02;8.52;;;7.70;99.90;;;;;;5029762;28;20045;-77
2024/02/02 09:38:29;;;;;;;32.33;8.90;;;7.60;99.90;;;;;;5035666;28;20566;-76
2024/02/02 09:41:01;;;;;;;29.55;8.75;;;7.70;99.90;;;;;;5028286;28;20474;-77
2024/02/02 09:43:48;;;;;;;28.37;8.53;;;7.80;99.90;;;;;;5034351;28;20032;-78
2024/02/02 09:46:20;;;;;;;39.50;9.65;;;7.80;99.90;;;;;;5031046;28;20037;-76
2024/02/02 09:49:05;;;;;;;33.00;9.32;;;7.90;99.90;;;;;;5029844;28;20041;-76
2024/02/02 09:52:01;;;;;;;37.40;9.40;;;7.80;99.90;;;;;;5029271;28;20029;-76
2024/02/02 09:54:45;;;;;;;26.33;8.15;;;7.90;99.90;;;;;;5031408;28;20026;-77
2024/02/02 09:57:26;;;;;;;32.42;9.30;;;7.90;99.90;;;;;;5028783;28;20018;-78
2024/02/02 10:00:33;;;;;;;33.95;8.95;;;7.90;99.90;;;;;;5027753;28;20030;-79
2024/02/02 10:03:19;;;;;;;25.30;8.88;;;8.00;99.90;;;;;;5026884;28;20035;-75
2024/02/02 10:06:04;;;;;;;39.10;10.27;;;8.10;99.90;;;;;;5030707;28;20413;-76
2024/02/02 10:08:39;;;;;;;31.90;9.55;;;8.10;99.90;;;;;;5027200;28;20038;-79
2024/02/02 10:11:08;;;;;;;32.25;10.18;;;8.20;99.90;;;;;;5026309;28;20068;-76
2024/02/02 10:14:02;;;;;;;29.63;9.48;;;8.20;99.90;;;;;;5028396;28;20060;-76
2024/02/02 10:16:43;;;;;;;30.88;10.50;;;8.30;99.90;;;;;;5031228;28;20110;-76
2024/02/02 10:19:27;;;;;;;37.78;10.13;;;8.30;99.90;;;;;;5030203;28;20381;-79
2024/02/02 10:22:18;;;;;;;31.52;9.52;;;8.30;99.90;;;;;;5028043;28;20047;-74
2024/02/02 10:24:58;;;;;;;31.83;9.27;;;8.30;99.90;;;;;;5029150;28;20056;-75
2024/02/02 10:28:11;;;;;;;33.47;9.73;;;8.30;99.90;;;;;;5026734;28;20037;-81
2024/02/02 10:30:55;;;;;;;22.45;9.23;;;8.40;99.90;;;;;;5029404;28;20471;-78
2024/02/02 10:33:39;;;;;;;33.30;10.05;;;8.30;99.90;;;;;;5029250;28;20037;-82
2024/02/02 10:36:23;;;;;;;34.22;10.77;;;8.40;99.90;;;;;;5028889;28;20470;-81
2024/02/02 10:39:13;;;;;;;41.03;11.27;;;8.30;99.90;;;;;;5025184;28;20051;-81
2024/02/02 10:41:51;;;;;;;37.80;12.02;;;8.40;99.90;;;;;;5031539;28;20112;-80
2024/02/02 10:44:32;;;;;;;33.70;12.38;;;8.50;99.90;;;;;;5032946;28;20064;-75
2024/02/02 10:47:17;;;;;;;31.63;10.80;;;8.50;99.90;;;;;;5027946;28;20039;-76
2024/02/02 10:49:49;;;;;;;37.20;10.50;;;8.50;99.90;;;;;;5029806;28;20116;-81
2024/02/02 10:52:26;;;;;;;31.55;11.48;;;8.50;99.90;;;;;;5028872;28;20030;-79
2024/02/02 10:55:18;;;;;;;37.67;11.05;;;8.50;99.90;;;;;;5028267;28;20144;-80
2024/02/02 10:57:54;;;;;;;37.20;11.70;;;8.60;99.90;;;;;;5028638;28;20025;-83
2024/02/02 11:00:23;;;;;;;40.38;12.32;;;8.70;99.90;;;;;;5028064;28;20036;-82
2024/02/02 11:03:04;;;;;;;39.58;11.73;;;8.70;99.90;;;;;;5028414;28;20088;-81
2024/02/02 11:05:39;;;;;;;40.83;11.52;;;8.70;99.90;;;;;;5029043;28;20482;-81
2024/02/02 11:08:13;;;;;;;36.85;13.73;;;8.70;99.90;;;;;;5027997;28;20134;-81
2024/02/02 11:10:48;;;;;;;37.25;12.00;;;8.70;99.90;;;;;;5027692;28;20021;-82
2024/02/02 11:13:26;;;;;;;29.13;12.30;;;8.70;99.90;;;;;;5026116;28;20092;-81
2024/02/02 11:16:10;;;;;;;45.95;16.45;;;8.80;99.90;;;;;;5023192;28;20048;-81
2024/02/02 11:19:16;;;;;;;37.95;13.13;;;8.70;99.90;;;;;;5028966;28;20029;-78
2024/02/02 11:22:20;;;;;;;41.92;12.90;;;8.90;99.90;;;;;;5031296;28;20036;-78
2024/02/02 11:25:08;;;;;;;35.65;14.02;;;8.80;99.90;;;;;;5025891;28;20025;-82
2024/02/02 11:27:48;;;;;;;33.35;14.93;;;8.80;99.90;;;;;;5021904;28;20075;-82
2024/02/02 11:30:28;;;;;;;38.97;14.95;;;8.90;99.90;;;;;;5028790;28;20116;-82
2024/02/02 11:33:25;;;;;;;39.00;14.70;;;8.90;99.90;;;;;;5026764;28;20021;-81
2024/02/02 11:36:05;;;;;;;40.03;15.13;;;9.00;99.90;;;;;;5031240;28;20025;-82
2024/02/02 11:38:58;;;;;;;41.10;15.02;;;9.00;99.90;;;;;;5034168;28;20474;-81
2024/02/02 11:41:28;;;;;;;35.17;15.15;;;8.90;99.90;;;;;;5029730;28;20029;-75
2024/02/02 11:43:55;;;;;;;43.42;17.02;;;8.90;99.90;;;;;;5032058;28;20032;-77
2024/02/02 11:46:25;;;;;;;42.75;17.08;;;9.00;99.90;;;;;;5028639;28;20103;-80
2024/02/02 11:49:13;;;;;;;46.40;14.80;;;9.00;99.90;;;;;;5035307;28;20481;-80
2024/02/02 11:51:48;;;;;;;40.92;16.25;;;9.00;99.90;;;;;;5032433;28;20042;-79
2024/02/02 11:54:30;;;;;;;46.03;16.75;;;9.10;99.90;;;;;;5030568;28;20017;-81
2024/02/02 11:56:59;;;;;;;41.30;16.25;;;9.10;99.90;;;;;;5033323;28;20028;-79
2024/02/02 11:59:32;;;;;;;43.60;18.23;;;9.10;99.90;;;;;;5030177;28;20025;-81
2024/02/02 12:02:16;;;;;;;39.58;17.75;;;9.10;99.90;;;;;;5030977;28;23026;-80
2024/02/02 12:04:45;;;;;;;42.63;17.58;;;9.10;99.90;;;;;;5028387;28;20037;-81
2024/02/02 12:07:44;;;;;;;44.25;19.20;;;9.10;99.90;;;;;;5032882;28;20526;-80
2024/02/02 12:10:15;;;;;;;43.33;18.83;;;9.20;99.90;;;;;;5031462;28;20043;-83
2024/02/02 12:12:45;;;;;;;46.38;19.40;;;9.10;99.90;;;;;;5030986;28;20017;-79
2024/02/02 12:15:11;;;;;;;43.83;17.83;;;9.10;99.90;;;;;;5031347;28;20029;-81
2024/02/02 12:17:38;;;;;;;38.95;18.08;;;9.10;99.90;;;;;;5031916;28;20013;-81
2024/02/02 12:20:09;;;;;;;43.15;16.02;;;9.20;99.90;;;;;;5033478;28;20025;-80
2024/02/02 12:22:36;;;;;;;38.15;16.52;;;9.30;99.90;;;;;;5031234;28;20029;-79
2024/02/02 12:25:09;;;;;;;45.88;17.67;;;9.20;99.90;;;;;;5030275;28;20017;-80
2024/02/02 12:27:35;;;;;;;39.03;19.48;;;9.30;99.90;;;;;;5032596;28;20466;-80
2024/02/02 12:30:09;;;;;;;43.35;17.95;;;9.40;99.90;;;;;;5030258;28;20088;-82
2024/02/02 12:32:35;;;;;;;43.97;18.50;;;9.40;99.90;;;;;;5035698;28;20064;-80
2024/02/02 12:35:05;;;;;;;43.67;20.83;;;9.30;99.90;;;;;;5031384;28;20036;-82
2024/02/02 12:37:51;;;;;;;44.38;20.55;;;9.40;99.90;;;;;;5028990;28;20026;-82
2024/02/02 12:40:25;;;;;;;51.13;20.65;;;9.40;99.90;;;;;;5028841;28;20497;-82
2024/02/02 12:42:52;;;;;;;48.95;21.00;;;9.30;99.90;;;;;;5031360;28;20022;-80
2024/02/02 12:45:18;;;;;;;45.53;21.30;;;9.30;99.90;;;;;;5031248;28;20114;-81
2024/02/02 12:47:44;;;;;;;51.42;22.30;;;9.30;99.90;;;;;;5031615;28;20056;-81
2024/02/02 12:50:15;;;;;;;50.88;22.40;;;9.40;99.90;;;;;;5033883;28;20046;-79
2024/02/02 12:52:53;;;;;;;47.58;21.52;;;9.50;99.90;;;;;;5030892;28;20088;-81
2024/02/02 12:55:20;;;;;;;46.65;22.08;;;9.50;99.90;;;;;;5031492;28;20029;-82
2024/02/02 12:57:46;;;;;;;45.22;21.55;;;9.40;99.90;;;;;;5033156;28;20018;-81
2024/02/02 13:00:15;;;;;;;44.47;20.05;;;9.50;99.90;;;;;;5029672;28;20480;-82